sensor_id;sensor_type;location;lat;lon;timestamp;P1;durP1;ratioP1;P2;durP2;ratioP2
30824;SDS011;17550;45.486;12.222;2023-02-03T00:01:16;355.08;;;175.27;;
30824;SDS011;17550;45.486;12.222;2023-02-03T00:03:42;366.85;;;172.65;;
30824;SDS011;17550;45.486;12.222;2023-02-03T00:06:07;386.52;;;184.55;;
30824;SDS011;17550;45.486;12.222;2023-02-03T00:08:33;363.73;;;176.38;;
30824;SDS011;17550;45.486;12.222;2023-02-03T00:11:00;345.98;;;170.25;;
30824;SDS011;17550;45.486;12.222;2023-02-03T00:13:26;356.35;;;173.02;;
30824;SDS011;17550;45.486;12.222;2023-02-03T00:15:52;358.52;;;172.93;;
30824;SDS011;17550;45.486;12.222;2023-02-03T00:18:18;379.85;;;181.68;;
30824;SDS011;17550;45.486;12.222;2023-02-03T00:20:43;359.75;;;173.38;;
30824;SDS011;17550;45.486;12.222;2023-02-03T00:23:10;379.58;;;185.25;;
30824;SDS011;17550;45.486;12.222;2023-02-03T00:25:36;371.23;;;175.93;;
30824;SDS011;17550;45.486;12.222;2023-02-03T00:28:02;350.95;;;171.95;;
30824;SDS011;17550;45.486;12.222;2023-02-03T00:30:29;355.58;;;172.52;;
30824;SDS011;17550;45.486;12.222;2023-02-03T00:32:55;347.17;;;171.63;;
30824;SDS011;17550;45.486;12.222;2023-02-03T00:35:21;359.60;;;171.27;;
30824;SDS011;17550;45.486;12.222;2023-02-03T00:37:53;343.00;;;171.02;;
30824;SDS011;17550;45.486;12.222;2023-02-03T00:40:20;344.30;;;167.45;;
30824;SDS011;17550;45.486;12.222;2023-02-03T00:42:47;344.98;;;170.32;;
30824;SDS011;17550;45.486;12.222;2023-02-03T00:45:13;338.77;;;162.27;;
30824;SDS011;17550;45.486;12.222;2023-02-03T00:47:38;341.42;;;165.80;;
30824;SDS011;17550;45.486;12.222;2023-02-03T00:50:05;344.88;;;164.15;;
30824;SDS011;17550;45.486;12.222;2023-02-03T00:52:31;344.73;;;165.93;;
30824;SDS011;17550;45.486;12.222;2023-02-03T00:54:57;351.65;;;173.35;;
30824;SDS011;17550;45.486;12.222;2023-02-03T00:57:23;345.80;;;168.70;;
30824;SDS011;17550;45.486;12.222;2023-02-03T00:59:48;339.80;;;163.98;;
30824;SDS011;17550;45.486;12.222;2023-02-03T01:02:14;342.25;;;166.27;;
30824;SDS011;17550;45.486;12.222;2023-02-03T01:04:41;330.15;;;161.50;;
30824;SDS011;17550;45.486;12.222;2023-02-03T01:07:07;331.98;;;164.75;;
30824;SDS011;17550;45.486;12.222;2023-02-03T01:09:33;332.33;;;161.80;;
30824;SDS011;17550;45.486;12.222;2023-02-03T01:12:00;331.48;;;165.15;;
30824;SDS011;17550;45.486;12.222;2023-02-03T01:14:25;335.80;;;164.52;;
30824;SDS011;17550;45.486;12.222;2023-02-03T01:16:51;337.30;;;162.93;;
30824;SDS011;17550;45.486;12.222;2023-02-03T01:19:17;329.83;;;164.73;;
30824;SDS011;17550;45.486;12.222;2023-02-03T01:21:42;340.02;;;166.45;;
30824;SDS011;17550;45.486;12.222;2023-02-03T01:24:08;333.38;;;163.23;;
30824;SDS011;17550;45.486;12.222;2023-02-03T01:26:34;340.10;;;163.18;;
30824;SDS011;17550;45.486;12.222;2023-02-03T01:29:00;336.65;;;161.73;;
30824;SDS011;17550;45.486;12.222;2023-02-03T01:31:26;336.73;;;160.20;;
30824;SDS011;17550;45.486;12.222;2023-02-03T01:33:58;334.92;;;157.73;;
30824;SDS011;17550;45.486;12.222;2023-02-03T01:36:25;320.90;;;158.23;;
30824;SDS011;17550;45.486;12.222;2023-02-03T01:38:52;344.58;;;171.10;;
30824;SDS011;17550;45.486;12.222;2023-02-03T01:41:20;372.55;;;177.27;;
30824;SDS011;17550;45.486;12.222;2023-02-03T01:43:49;358.38;;;169.93;;
30824;SDS011;17550;45.486;12.222;2023-02-03T01:49:06;357.35;;;170.15;;
30824;SDS011;17550;45.486;12.222;2023-02-03T01:51:38;375.25;;;181.82;;
30824;SDS011;17550;45.486;12.222;2023-02-03T01:54:06;370.77;;;179.43;;
30824;SDS011;17550;45.486;12.222;2023-02-03T01:56:35;351.83;;;169.15;;
30824;SDS011;17550;45.486;12.222;2023-02-03T01:59:04;337.63;;;161.30;;
30824;SDS011;17550;45.486;12.222;2023-02-03T02:01:30;349.70;;;165.52;;
30824;SDS011;17550;45.486;12.222;2023-02-03T02:03:59;341.52;;;161.15;;
30824;SDS011;17550;45.486;12.222;2023-02-03T02:06:27;334.10;;;161.77;;
30824;SDS011;17550;45.486;12.222;2023-02-03T02:08:53;346.67;;;164.43;;
30824;SDS011;17550;45.486;12.222;2023-02-03T02:11:21;335.23;;;159.05;;
30824;SDS011;17550;45.486;12.222;2023-02-03T02:13:47;346.83;;;163.00;;
30824;SDS011;17550;45.486;12.222;2023-02-03T02:16:16;338.20;;;161.98;;
30824;SDS011;17550;45.486;12.222;2023-02-03T02:41:19;344.70;;;166.38;;
30824;SDS011;17550;45.486;12.222;2023-02-03T02:46:30;338.02;;;166.73;;
30824;SDS011;17550;45.486;12.222;2023-02-03T02:49:08;345.55;;;163.85;;
30824;SDS011;17550;45.486;12.222;2023-02-03T02:51:45;352.08;;;168.48;;
30824;SDS011;17550;45.486;12.222;2023-02-03T02:54:14;351.92;;;162.63;;
30824;SDS011;17550;45.486;12.222;2023-02-03T02:56:42;325.60;;;155.55;;
30824;SDS011;17550;45.486;12.222;2023-02-03T02:59:14;345.67;;;168.88;;
30824;SDS011;17550;45.486;12.222;2023-02-03T03:01:40;359.42;;;172.27;;
30824;SDS011;17550;45.486;12.222;2023-02-03T03:04:06;336.00;;;161.98;;
30824;SDS011;17550;45.486;12.222;2023-02-03T03:06:37;344.05;;;164.20;;
30824;SDS011;17550;45.486;12.222;2023-02-03T03:14:44;335.30;;;156.82;;
30824;SDS011;17550;45.486;12.222;2023-02-03T03:17:13;333.45;;;162.50;;
30824;SDS011;17550;45.486;12.222;2023-02-03T03:19:47;334.45;;;158.95;;
30824;SDS011;17550;45.486;12.222;2023-02-03T03:22:18;327.83;;;159.68;;
30824;SDS011;17550;45.486;12.222;2023-02-03T03:24:47;339.45;;;164.65;;
30824;SDS011;17550;45.486;12.222;2023-02-03T03:27:22;349.42;;;168.90;;
30824;SDS011;17550;45.486;12.222;2023-02-03T03:29:53;341.05;;;165.68;;
30824;SDS011;17550;45.486;12.222;2023-02-03T03:32:22;350.60;;;168.02;;
30824;SDS011;17550;45.486;12.222;2023-02-03T03:34:48;358.77;;;169.02;;
30824;SDS011;17550;45.486;12.222;2023-02-03T03:42:40;360.45;;;168.15;;
30824;SDS011;17550;45.486;12.222;2023-02-03T03:47:46;368.65;;;177.40;;
30824;SDS011;17550;45.486;12.222;2023-02-03T03:50:15;340.73;;;164.40;;
30824;SDS011;17550;45.486;12.222;2023-02-03T03:52:47;383.30;;;174.50;;
30824;SDS011;17550;45.486;12.222;2023-02-03T03:55:15;370.55;;;174.63;;
30824;SDS011;17550;45.486;12.222;2023-02-03T04:00:21;363.33;;;172.73;;
30824;SDS011;17550;45.486;12.222;2023-02-03T04:02:50;366.10;;;171.88;;
30824;SDS011;17550;45.486;12.222;2023-02-03T04:05:19;373.25;;;170.50;;
30824;SDS011;17550;45.486;12.222;2023-02-03T04:07:46;376.40;;;172.32;;
30824;SDS011;17550;45.486;12.222;2023-02-03T04:10:24;370.95;;;174.38;;
30824;SDS011;17550;45.486;12.222;2023-02-03T04:12:54;424.92;;;192.07;;
30824;SDS011;17550;45.486;12.222;2023-02-03T04:15:21;406.88;;;186.55;;
30824;SDS011;17550;45.486;12.222;2023-02-03T04:17:46;388.73;;;181.68;;
30824;SDS011;17550;45.486;12.222;2023-02-03T04:20:12;398.40;;;178.82;;
30824;SDS011;17550;45.486;12.222;2023-02-03T04:22:39;383.65;;;178.45;;
30824;SDS011;17550;45.486;12.222;2023-02-03T04:25:04;429.52;;;195.75;;
30824;SDS011;17550;45.486;12.222;2023-02-03T04:27:30;396.40;;;182.40;;
30824;SDS011;17550;45.486;12.222;2023-02-03T04:29:56;390.98;;;182.45;;
30824;SDS011;17550;45.486;12.222;2023-02-03T04:32:22;454.92;;;202.40;;
30824;SDS011;17550;45.486;12.222;2023-02-03T04:34:48;388.70;;;178.32;;
30824;SDS011;17550;45.486;12.222;2023-02-03T04:37:13;424.90;;;183.27;;
30824;SDS011;17550;45.486;12.222;2023-02-03T04:39:39;408.98;;;182.20;;
30824;SDS011;17550;45.486;12.222;2023-02-03T04:42:05;391.70;;;175.00;;
30824;SDS011;17550;45.486;12.222;2023-02-03T04:44:30;407.25;;;185.88;;
30824;SDS011;17550;45.486;12.222;2023-02-03T04:46:56;416.52;;;183.75;;
30824;SDS011;17550;45.486;12.222;2023-02-03T04:49:22;375.13;;;172.68;;
30824;SDS011;17550;45.486;12.222;2023-02-03T04:51:48;374.42;;;169.40;;
30824;SDS011;17550;45.486;12.222;2023-02-03T04:54:14;362.52;;;170.00;;
30824;SDS011;17550;45.486;12.222;2023-02-03T04:56:39;407.23;;;181.20;;
30824;SDS011;17550;45.486;12.222;2023-02-03T04:59:05;395.88;;;175.32;;
30824;SDS011;17550;45.486;12.222;2023-02-03T05:01:31;404.38;;;182.35;;
30824;SDS011;17550;45.486;12.222;2023-02-03T05:03:57;385.02;;;175.38;;
30824;SDS011;17550;45.486;12.222;2023-02-03T05:06:23;384.10;;;171.40;;
30824;SDS011;17550;45.486;12.222;2023-02-03T05:08:50;452.50;;;195.93;;
30824;SDS011;17550;45.486;12.222;2023-02-03T05:11:19;443.05;;;193.02;;
30824;SDS011;17550;45.486;12.222;2023-02-03T05:13:46;378.10;;;169.63;;
30824;SDS011;17550;45.486;12.222;2023-02-03T05:16:11;406.80;;;178.70;;
30824;SDS011;17550;45.486;12.222;2023-02-03T05:18:37;374.92;;;166.40;;
30824;SDS011;17550;45.486;12.222;2023-02-03T05:21:03;381.52;;;168.32;;
30824;SDS011;17550;45.486;12.222;2023-02-03T05:25:54;397.75;;;174.55;;
30824;SDS011;17550;45.486;12.222;2023-02-03T05:28:20;374.30;;;168.32;;
30824;SDS011;17550;45.486;12.222;2023-02-03T05:30:45;377.73;;;169.18;;
30824;SDS011;17550;45.486;12.222;2023-02-03T05:33:11;377.95;;;167.30;;
30824;SDS011;17550;45.486;12.222;2023-02-03T05:35:37;367.95;;;167.50;;
30824;SDS011;17550;45.486;12.222;2023-02-03T05:38:02;392.63;;;175.30;;
30824;SDS011;17550;45.486;12.222;2023-02-03T05:40:28;351.30;;;162.07;;
30824;SDS011;17550;45.486;12.222;2023-02-03T05:43:13;368.40;;;167.57;;
30824;SDS011;17550;45.486;12.222;2023-02-03T05:45:38;373.08;;;167.25;;
30824;SDS011;17550;45.486;12.222;2023-02-03T05:48:04;358.55;;;165.75;;
30824;SDS011;17550;45.486;12.222;2023-02-03T05:50:31;358.33;;;163.93;;
30824;SDS011;17550;45.486;12.222;2023-02-03T05:52:58;364.42;;;163.70;;
30824;SDS011;17550;45.486;12.222;2023-02-03T05:55:24;373.85;;;167.00;;
30824;SDS011;17550;45.486;12.222;2023-02-03T05:57:51;361.02;;;160.43;;
30824;SDS011;17550;45.486;12.222;2023-02-03T06:00:16;337.40;;;154.55;;
30824;SDS011;17550;45.486;12.222;2023-02-03T06:02:42;345.60;;;155.65;;
30824;SDS011;17550;45.486;12.222;2023-02-03T06:05:08;382.73;;;169.85;;
30824;SDS011;17550;45.486;12.222;2023-02-03T06:07:34;357.63;;;161.90;;
30824;SDS011;17550;45.486;12.222;2023-02-03T06:09:59;363.70;;;161.23;;
30824;SDS011;17550;45.486;12.222;2023-02-03T06:12:25;369.10;;;166.85;;
30824;SDS011;17550;45.486;12.222;2023-02-03T06:14:51;330.95;;;153.00;;
30824;SDS011;17550;45.486;12.222;2023-02-03T06:17:17;357.90;;;159.00;;
30824;SDS011;17550;45.486;12.222;2023-02-03T06:19:42;346.58;;;156.82;;
30824;SDS011;17550;45.486;12.222;2023-02-03T06:22:08;335.63;;;155.02;;
30824;SDS011;17550;45.486;12.222;2023-02-03T06:24:33;375.35;;;163.40;;
30824;SDS011;17550;45.486;12.222;2023-02-03T06:26:59;334.33;;;155.32;;
30824;SDS011;17550;45.486;12.222;2023-02-03T06:29:25;371.30;;;161.85;;
30824;SDS011;17550;45.486;12.222;2023-02-03T06:31:50;340.15;;;155.07;;
30824;SDS011;17550;45.486;12.222;2023-02-03T06:34:16;347.33;;;154.82;;
30824;SDS011;17550;45.486;12.222;2023-02-03T06:36:42;346.48;;;154.55;;
30824;SDS011;17550;45.486;12.222;2023-02-03T06:39:07;367.92;;;164.32;;
30824;SDS011;17550;45.486;12.222;2023-02-03T06:41:34;355.20;;;156.18;;
30824;SDS011;17550;45.486;12.222;2023-02-03T06:43:59;358.58;;;158.57;;
30824;SDS011;17550;45.486;12.222;2023-02-03T06:46:25;350.17;;;156.85;;
30824;SDS011;17550;45.486;12.222;2023-02-03T06:48:53;352.98;;;153.60;;
30824;SDS011;17550;45.486;12.222;2023-02-03T06:51:19;358.10;;;158.43;;
30824;SDS011;17550;45.486;12.222;2023-02-03T06:53:45;394.38;;;169.15;;
30824;SDS011;17550;45.486;12.222;2023-02-03T06:56:11;347.70;;;153.35;;
30824;SDS011;17550;45.486;12.222;2023-02-03T06:58:36;365.60;;;155.10;;
30824;SDS011;17550;45.486;12.222;2023-02-03T07:01:02;353.02;;;151.15;;
30824;SDS011;17550;45.486;12.222;2023-02-03T07:03:28;346.08;;;156.75;;
30824;SDS011;17550;45.486;12.222;2023-02-03T07:05:53;350.15;;;155.00;;
30824;SDS011;17550;45.486;12.222;2023-02-03T07:08:19;366.02;;;159.98;;
30824;SDS011;17550;45.486;12.222;2023-02-03T07:10:46;360.92;;;159.57;;
30824;SDS011;17550;45.486;12.222;2023-02-03T07:13:11;353.67;;;156.73;;
30824;SDS011;17550;45.486;12.222;2023-02-03T07:15:37;363.02;;;155.57;;
30824;SDS011;17550;45.486;12.222;2023-02-03T07:18:03;359.80;;;155.85;;
30824;SDS011;17550;45.486;12.222;2023-02-03T07:20:28;340.17;;;152.00;;
30824;SDS011;17550;45.486;12.222;2023-02-03T07:22:56;347.63;;;151.30;;
30824;SDS011;17550;45.486;12.222;2023-02-03T07:25:22;333.70;;;149.02;;
30824;SDS011;17550;45.486;12.222;2023-02-03T07:27:49;356.98;;;155.50;;
30824;SDS011;17550;45.486;12.222;2023-02-03T07:30:14;334.35;;;150.18;;
30824;SDS011;17550;45.486;12.222;2023-02-03T07:32:40;325.10;;;143.60;;
30824;SDS011;17550;45.486;12.222;2023-02-03T07:35:11;320.15;;;143.02;;
30824;SDS011;17550;45.486;12.222;2023-02-03T07:37:36;323.10;;;144.48;;
30824;SDS011;17550;45.486;12.222;2023-02-03T07:40:02;326.13;;;150.02;;
30824;SDS011;17550;45.486;12.222;2023-02-03T07:42:28;349.27;;;150.98;;
30824;SDS011;17550;45.486;12.222;2023-02-03T07:44:54;323.42;;;144.55;;
30824;SDS011;17550;45.486;12.222;2023-02-03T07:47:19;322.38;;;146.10;;
30824;SDS011;17550;45.486;12.222;2023-02-03T07:49:45;345.00;;;154.45;;
30824;SDS011;17550;45.486;12.222;2023-02-03T07:52:11;312.30;;;142.52;;
30824;SDS011;17550;45.486;12.222;2023-02-03T07:54:36;342.05;;;149.02;;
30824;SDS011;17550;45.486;12.222;2023-02-03T07:57:02;348.17;;;153.88;;
30824;SDS011;17550;45.486;12.222;2023-02-03T07:59:28;314.50;;;142.05;;
30824;SDS011;17550;45.486;12.222;2023-02-03T08:01:53;303.60;;;143.07;;
30824;SDS011;17550;45.486;12.222;2023-02-03T08:04:20;305.40;;;139.93;;
30824;SDS011;17550;45.486;12.222;2023-02-03T08:06:46;299.75;;;138.80;;
30824;SDS011;17550;45.486;12.222;2023-02-03T08:09:12;289.45;;;134.25;;
30824;SDS011;17550;45.486;12.222;2023-02-03T08:11:38;289.85;;;134.80;;
30824;SDS011;17550;45.486;12.222;2023-02-03T08:14:03;277.52;;;130.90;;
30824;SDS011;17550;45.486;12.222;2023-02-03T08:16:29;274.85;;;132.43;;
30824;SDS011;17550;45.486;12.222;2023-02-03T08:18:54;285.88;;;135.30;;
30824;SDS011;17550;45.486;12.222;2023-02-03T08:21:21;286.90;;;137.70;;
30824;SDS011;17550;45.486;12.222;2023-02-03T08:23:47;291.08;;;136.65;;
30824;SDS011;17550;45.486;12.222;2023-02-03T08:26:13;282.27;;;134.85;;
30824;SDS011;17550;45.486;12.222;2023-02-03T08:28:38;277.90;;;132.15;;
30824;SDS011;17550;45.486;12.222;2023-02-03T08:31:08;274.38;;;129.48;;
30824;SDS011;17550;45.486;12.222;2023-02-03T08:33:35;270.08;;;129.70;;
30824;SDS011;17550;45.486;12.222;2023-02-03T08:36:00;275.92;;;131.23;;
30824;SDS011;17550;45.486;12.222;2023-02-03T08:38:27;255.95;;;128.45;;
30824;SDS011;17550;45.486;12.222;2023-02-03T08:40:53;262.20;;;123.30;;
30824;SDS011;17550;45.486;12.222;2023-02-03T08:43:18;262.33;;;126.35;;
30824;SDS011;17550;45.486;12.222;2023-02-03T08:45:44;259.67;;;124.97;;
30824;SDS011;17550;45.486;12.222;2023-02-03T08:48:10;252.02;;;121.97;;
30824;SDS011;17550;45.486;12.222;2023-02-03T08:50:36;251.50;;;121.65;;
30824;SDS011;17550;45.486;12.222;2023-02-03T08:53:01;240.82;;;119.78;;
30824;SDS011;17550;45.486;12.222;2023-02-03T08:55:27;254.70;;;121.00;;
30824;SDS011;17550;45.486;12.222;2023-02-03T08:57:53;252.10;;;121.90;;
30824;SDS011;17550;45.486;12.222;2023-02-03T09:00:18;256.33;;;121.72;;
30824;SDS011;17550;45.486;12.222;2023-02-03T09:02:44;252.48;;;125.30;;
30824;SDS011;17550;45.486;12.222;2023-02-03T09:05:10;256.10;;;124.18;;
30824;SDS011;17550;45.486;12.222;2023-02-03T09:07:36;254.40;;;124.32;;
30824;SDS011;17550;45.486;12.222;2023-02-03T09:10:02;244.60;;;120.75;;
30824;SDS011;17550;45.486;12.222;2023-02-03T09:12:28;255.52;;;126.32;;
30824;SDS011;17550;45.486;12.222;2023-02-03T09:14:53;251.38;;;120.22;;
30824;SDS011;17550;45.486;12.222;2023-02-03T09:17:19;243.65;;;119.45;;
30824;SDS011;17550;45.486;12.222;2023-02-03T09:19:45;243.88;;;120.15;;
30824;SDS011;17550;45.486;12.222;2023-02-03T09:22:10;237.07;;;118.20;;
30824;SDS011;17550;45.486;12.222;2023-02-03T09:24:37;245.88;;;120.60;;
30824;SDS011;17550;45.486;12.222;2023-02-03T09:27:03;237.02;;;115.88;;
30824;SDS011;17550;45.486;12.222;2023-02-03T09:29:28;224.57;;;116.07;;
30824;SDS011;17550;45.486;12.222;2023-02-03T09:31:54;233.18;;;116.68;;
30824;SDS011;17550;45.486;12.222;2023-02-03T09:34:20;249.05;;;118.25;;
30824;SDS011;17550;45.486;12.222;2023-02-03T09:36:46;234.07;;;116.18;;
30824;SDS011;17550;45.486;12.222;2023-02-03T09:39:12;234.75;;;114.30;;
30824;SDS011;17550;45.486;12.222;2023-02-03T09:47:49;231.25;;;110.18;;
30824;SDS011;17550;45.486;12.222;2023-02-03T09:52:57;224.68;;;107.22;;
30824;SDS011;17550;45.486;12.222;2023-02-03T09:55:34;214.45;;;108.07;;
30824;SDS011;17550;45.486;12.222;2023-02-03T10:00:49;221.48;;;108.00;;
30824;SDS011;17550;45.486;12.222;2023-02-03T10:03:25;207.60;;;105.30;;
30824;SDS011;17550;45.486;12.222;2023-02-03T10:19:48;198.07;;;99.05;;
30824;SDS011;17550;45.486;12.222;2023-02-03T10:22:20;196.00;;;96.35;;
30824;SDS011;17550;45.486;12.222;2023-02-03T10:27:32;178.57;;;91.68;;
30824;SDS011;17550;45.486;12.222;2023-02-03T10:30:09;181.32;;;90.53;;
30824;SDS011;17550;45.486;12.222;2023-02-03T10:32:43;176.98;;;88.80;;
30824;SDS011;17550;45.486;12.222;2023-02-03T10:35:10;166.68;;;86.15;;
30824;SDS011;17550;45.486;12.222;2023-02-03T10:37:40;174.63;;;88.10;;
30824;SDS011;17550;45.486;12.222;2023-02-03T10:40:12;162.95;;;84.75;;
30824;SDS011;17550;45.486;12.222;2023-02-03T10:42:40;158.60;;;83.75;;
30824;SDS011;17550;45.486;12.222;2023-02-03T10:45:30;149.75;;;78.07;;
30824;SDS011;17550;45.486;12.222;2023-02-03T10:48:00;150.10;;;77.15;;
30824;SDS011;17550;45.486;12.222;2023-02-03T10:50:28;130.18;;;71.25;;
30824;SDS011;17550;45.486;12.222;2023-02-03T10:56:07;140.48;;;73.97;;
30824;SDS011;17550;45.486;12.222;2023-02-03T10:58:36;132.52;;;70.40;;
30824;SDS011;17550;45.486;12.222;2023-02-03T11:03:30;134.73;;;70.75;;
30824;SDS011;17550;45.486;12.222;2023-02-03T11:06:29;141.07;;;73.50;;
30824;SDS011;17550;45.486;12.222;2023-02-03T11:08:48;102.60;;;53.75;;
30824;SDS011;17550;45.486;12.222;2023-02-03T11:13:51;133.93;;;69.97;;
30824;SDS011;17550;45.486;12.222;2023-02-03T11:16:37;137.40;;;71.28;;
30824;SDS011;17550;45.486;12.222;2023-02-03T11:19:10;131.70;;;69.85;;
30824;SDS011;17550;45.486;12.222;2023-02-03T11:21:45;123.85;;;65.47;;
30824;SDS011;17550;45.486;12.222;2023-02-03T11:24:27;109.68;;;62.72;;
30824;SDS011;17550;45.486;12.222;2023-02-03T11:29:35;115.65;;;65.60;;
30824;SDS011;17550;45.486;12.222;2023-02-03T11:32:17;120.47;;;64.10;;
30824;SDS011;17550;45.486;12.222;2023-02-03T11:34:56;115.15;;;62.53;;
30824;SDS011;17550;45.486;12.222;2023-02-03T11:37:30;117.15;;;64.05;;
30824;SDS011;17550;45.486;12.222;2023-02-03T11:42:37;126.28;;;69.57;;
30824;SDS011;17550;45.486;12.222;2023-02-03T11:47:49;127.10;;;68.07;;
30824;SDS011;17550;45.486;12.222;2023-02-03T11:55:32;131.57;;;72.53;;
30824;SDS011;17550;45.486;12.222;2023-02-03T11:58:09;141.48;;;76.70;;
30824;SDS011;17550;45.486;12.222;2023-02-03T12:03:47;130.80;;;73.30;;
30824;SDS011;17550;45.486;12.222;2023-02-03T12:17:26;137.40;;;73.43;;
30824;SDS011;17550;45.486;12.222;2023-02-03T12:20:33;130.30;;;72.88;;
30824;SDS011;17550;45.486;12.222;2023-02-03T12:23:21;140.80;;;74.80;;
30824;SDS011;17550;45.486;12.222;2023-02-03T12:26:12;131.25;;;71.85;;
30824;SDS011;17550;45.486;12.222;2023-02-03T12:29:00;129.13;;;70.07;;
30824;SDS011;17550;45.486;12.222;2023-02-03T12:31:45;129.30;;;70.85;;
30824;SDS011;17550;45.486;12.222;2023-02-03T12:37:29;131.73;;;71.85;;
30824;SDS011;17550;45.486;12.222;2023-02-03T12:40:11;131.75;;;73.18;;
30824;SDS011;17550;45.486;12.222;2023-02-03T12:42:45;142.90;;;77.25;;
30824;SDS011;17550;45.486;12.222;2023-02-03T12:45:23;131.10;;;72.63;;
30824;SDS011;17550;45.486;12.222;2023-02-03T12:50:52;139.50;;;75.88;;
30824;SDS011;17550;45.486;12.222;2023-02-03T12:53:26;147.43;;;80.70;;
30824;SDS011;17550;45.486;12.222;2023-02-03T12:56:00;142.25;;;78.63;;
30824;SDS011;17550;45.486;12.222;2023-02-03T13:01:25;145.38;;;79.30;;
30824;SDS011;17550;45.486;12.222;2023-02-03T13:04:00;145.63;;;79.70;;
30824;SDS011;17550;45.486;12.222;2023-02-03T13:06:57;145.75;;;80.35;;
30824;SDS011;17550;45.486;12.222;2023-02-03T13:12:27;149.52;;;83.63;;
30824;SDS011;17550;45.486;12.222;2023-02-03T13:15:18;149.48;;;83.63;;
30824;SDS011;17550;45.486;12.222;2023-02-03T13:17:56;161.75;;;84.70;;
30824;SDS011;17550;45.486;12.222;2023-02-03T13:20:36;152.77;;;84.23;;
30824;SDS011;17550;45.486;12.222;2023-02-03T13:23:03;150.05;;;83.25;;
30824;SDS011;17550;45.486;12.222;2023-02-03T13:25:38;140.05;;;80.25;;
30824;SDS011;17550;45.486;12.222;2023-02-03T13:36:40;160.00;;;91.20;;
30824;SDS011;17550;45.486;12.222;2023-02-03T13:44:48;169.20;;;90.93;;
30824;SDS011;17550;45.486;12.222;2023-02-03T13:47:20;176.10;;;93.53;;
30824;SDS011;17550;45.486;12.222;2023-02-03T13:49:52;173.23;;;93.40;;
30824;SDS011;17550;45.486;12.222;2023-02-03T13:52:26;172.85;;;94.88;;
30824;SDS011;17550;45.486;12.222;2023-02-03T13:55:05;138.90;;;73.83;;
30824;SDS011;17550;45.486;12.222;2023-02-03T13:57:32;186.25;;;99.07;;
30824;SDS011;17550;45.486;12.222;2023-02-03T14:00:00;187.60;;;103.18;;
30824;SDS011;17550;45.486;12.222;2023-02-03T14:02:30;182.65;;;100.68;;
30824;SDS011;17550;45.486;12.222;2023-02-03T14:05:37;191.82;;;105.40;;
30824;SDS011;17550;45.486;12.222;2023-02-03T14:16:34;181.20;;;99.20;;
30824;SDS011;17550;45.486;12.222;2023-02-03T14:19:01;170.98;;;92.45;;
30824;SDS011;17550;45.486;12.222;2023-02-03T14:21:27;168.88;;;93.05;;
30824;SDS011;17550;45.486;12.222;2023-02-03T14:24:03;170.60;;;95.10;;
30824;SDS011;17550;45.486;12.222;2023-02-03T14:29:02;192.52;;;102.07;;
30824;SDS011;17550;45.486;12.222;2023-02-03T14:31:30;179.02;;;98.50;;
30824;SDS011;17550;45.486;12.222;2023-02-03T14:34:06;197.18;;;107.00;;
30824;SDS011;17550;45.486;12.222;2023-02-03T14:42:00;200.30;;;107.32;;
30824;SDS011;17550;45.486;12.222;2023-02-03T14:50:30;195.85;;;102.68;;
30824;SDS011;17550;45.486;12.222;2023-02-03T14:58:31;192.82;;;101.57;;
30824;SDS011;17550;45.486;12.222;2023-02-03T15:01:02;186.52;;;100.10;;
30824;SDS011;17550;45.486;12.222;2023-02-03T15:03:29;192.55;;;100.60;;
30824;SDS011;17550;45.486;12.222;2023-02-03T15:06:02;192.93;;;101.35;;
30824;SDS011;17550;45.486;12.222;2023-02-03T15:11:20;201.60;;;107.53;;
30824;SDS011;17550;45.486;12.222;2023-02-03T15:13:52;206.85;;;106.72;;
30824;SDS011;17550;45.486;12.222;2023-02-03T15:16:20;197.93;;;103.53;;
30824;SDS011;17550;45.486;12.222;2023-02-03T15:19:21;198.82;;;104.03;;
30824;SDS011;17550;45.486;12.222;2023-02-03T15:21:40;195.15;;;101.05;;
30824;SDS011;17550;45.486;12.222;2023-02-03T15:24:13;202.52;;;106.45;;
30824;SDS011;17550;45.486;12.222;2023-02-03T15:26:46;208.98;;;109.57;;
30824;SDS011;17550;45.486;12.222;2023-02-03T15:31:47;203.77;;;106.05;;
30824;SDS011;17550;45.486;12.222;2023-02-03T15:34:22;202.25;;;106.40;;
30824;SDS011;17550;45.486;12.222;2023-02-03T15:36:50;212.48;;;108.22;;
30824;SDS011;17550;45.486;12.222;2023-02-03T15:41:57;236.35;;;113.88;;
30824;SDS011;17550;45.486;12.222;2023-02-03T15:44:25;207.48;;;108.22;;
30824;SDS011;17550;45.486;12.222;2023-02-03T15:46:58;228.15;;;112.20;;
30824;SDS011;17550;45.486;12.222;2023-02-03T15:49:28;219.40;;;109.43;;
30824;SDS011;17550;45.486;12.222;2023-02-03T15:51:58;223.57;;;111.45;;
30824;SDS011;17550;45.486;12.222;2023-02-03T15:54:30;225.05;;;110.05;;
30824;SDS011;17550;45.486;12.222;2023-02-03T15:57:09;212.82;;;106.95;;
30824;SDS011;17550;45.486;12.222;2023-02-03T15:59:39;211.40;;;109.70;;
30824;SDS011;17550;45.486;12.222;2023-02-03T16:04:42;219.52;;;111.63;;
30824;SDS011;17550;45.486;12.222;2023-02-03T16:07:22;225.02;;;111.47;;
30824;SDS011;17550;45.486;12.222;2023-02-03T16:09:53;224.35;;;110.25;;
30824;SDS011;17550;45.486;12.222;2023-02-03T16:14:48;223.55;;;112.75;;
30824;SDS011;17550;45.486;12.222;2023-02-03T16:17:25;230.65;;;114.43;;
30824;SDS011;17550;45.486;12.222;2023-02-03T16:22:37;237.88;;;117.28;;
30824;SDS011;17550;45.486;12.222;2023-02-03T16:27:40;242.35;;;119.05;;
30824;SDS011;17550;45.486;12.222;2023-02-03T16:33:00;228.43;;;117.07;;
30824;SDS011;17550;45.486;12.222;2023-02-03T16:35:52;237.13;;;114.95;;
30824;SDS011;17550;45.486;12.222;2023-02-03T16:38:47;238.32;;;117.07;;
30824;SDS011;17550;45.486;12.222;2023-02-03T16:41:33;236.27;;;119.45;;
30824;SDS011;17550;45.486;12.222;2023-02-03T16:44:17;241.50;;;119.00;;
30824;SDS011;17550;45.486;12.222;2023-02-03T16:47:02;290.20;;;135.88;;
30824;SDS011;17550;45.486;12.222;2023-02-03T16:49:46;269.25;;;129.55;;
30824;SDS011;17550;45.486;12.222;2023-02-03T16:52:31;277.40;;;135.80;;
30824;SDS011;17550;45.486;12.222;2023-02-03T16:54:56;300.83;;;144.93;;
30824;SDS011;17550;45.486;12.222;2023-02-03T16:57:23;277.23;;;135.80;;
30824;SDS011;17550;45.486;12.222;2023-02-03T16:59:48;264.52;;;130.68;;
30824;SDS011;17550;45.486;12.222;2023-02-03T17:02:14;247.57;;;127.68;;
30824;SDS011;17550;45.486;12.222;2023-02-03T17:04:40;248.45;;;120.25;;